Time;durP1;ratioP1;P1;durP2;ratioP2;P2;SDS_P1;SDS_P2;PMS_P1;PMS_P2;Temp;Humidity;BMP_temperature;BMP_pressure;BME280_temperature;BME280_humidity;BME280_pressure;Samples;Min_cycle;Max_cycle;Signal;HPM_P1;HPM_P2
2021/12/17 00:07:04;;;;;;;46.03;17.23;;;10.40;99.90;;;;;;5093179;28;20028;-75
2021/12/17 00:09:30;;;;;;;49.45;17.33;;;10.40;99.90;;;;;;5095454;28;20031;-76
2021/12/17 00:11:56;;;;;;;46.42;16.45;;;10.40;99.90;;;;;;5094775;28;20434;-75
2021/12/17 00:14:30;;;;;;;43.53;16.77;;;10.40;99.90;;;;;;5098034;28;20353;-74
2021/12/17 00:16:59;;;;;;;42.08;16.08;;;10.30;99.90;;;;;;5095638;28;20038;-76
2021/12/17 00:49:05;;;;;;;50.55;16.30;;;10.30;99.90;;;;;;5096465;28;20085;-75
2021/12/17 00:54:19;;;;;;;50.00;16.98;;;10.30;99.90;;;;;;5095848;28;20107;-75
2021/12/17 00:56:48;;;;;;;44.33;15.70;;;10.30;99.90;;;;;;5104474;28;20024;-75
2021/12/17 00:59:13;;;;;;;50.75;16.45;;;10.30;99.90;;;;;;5110293;28;20020;-76
2021/12/17 01:01:39;;;;;;;43.08;16.17;;;10.30;99.90;;;;;;5102505;28;20023;-74
2021/12/17 01:04:05;;;;;;;41.85;15.85;;;10.30;99.90;;;;;;5104586;28;20476;-74
2021/12/17 01:06:30;;;;;;;43.60;15.50;;;10.30;99.90;;;;;;5107618;28;20035;-75
2021/12/17 01:08:56;;;;;;;55.85;16.15;;;10.30;99.90;;;;;;5114235;28;20028;-75
2021/12/17 01:11:23;;;;;;;49.35;16.95;;;10.30;99.90;;;;;;5096528;28;20028;-74
2021/12/17 01:13:49;;;;;;;51.50;16.77;;;10.30;99.90;;;;;;5076963;28;20464;-74
2021/12/17 01:16:15;;;;;;;50.72;16.70;;;10.30;99.90;;;;;;5095901;28;20023;-74
2021/12/17 01:24:07;;;;;;;50.03;16.15;;;10.30;99.90;;;;;;5085017;28;20054;-75
2021/12/17 01:43:01;;;;;;;60.38;19.23;;;10.20;99.90;;;;;;5103689;28;20031;-74
2021/12/17 01:45:31;;;;;;;66.53;20.55;;;10.20;99.90;;;;;;5112787;28;20015;-75
2021/12/17 01:48:00;;;;;;;70.15;21.05;;;10.30;99.90;;;;;;5108966;28;20043;-75
2021/12/17 02:01:41;;;;;;;80.45;21.15;;;10.30;99.90;;;;;;5092175;28;20038;-75
2021/12/17 02:04:09;;;;;;;61.97;18.55;;;10.30;99.90;;;;;;5097364;28;20359;-76
2021/12/17 02:06:37;;;;;;;72.72;20.25;;;10.30;99.90;;;;;;5093344;28;20024;-75
2021/12/17 02:09:40;;;;;;;77.68;21.75;;;10.30;99.90;;;;;;5094060;28;20020;-75
2021/12/17 02:12:20;;;;;;;78.20;20.00;;;10.30;99.90;;;;;;5083128;28;20028;-74
2021/12/17 02:29:40;;;;;;;54.20;14.80;;;10.00;99.90;;;;;;5093465;28;20097;-74
2021/12/17 02:32:07;;;;;;;52.47;14.13;;;10.00;99.90;;;;;;5083818;28;20028;-74
2021/12/17 02:37:22;;;;;;;52.50;14.63;;;9.90;99.90;;;;;;5094641;28;20418;-74
2021/12/17 02:48:08;;;;;;;44.47;12.40;;;9.70;99.90;;;;;;5113290;28;20047;-76
2021/12/17 02:50:36;;;;;;;46.45;13.10;;;9.70;99.90;;;;;;5112795;28;20135;-75
2021/12/17 02:53:07;;;;;;;40.70;11.50;;;9.70;99.90;;;;;;5102707;28;20425;-75
2021/12/17 02:55:35;;;;;;;42.60;11.37;;;9.70;99.90;;;;;;5102918;28;20069;-76
2021/12/17 02:58:01;;;;;;;38.83;11.13;;;9.70;99.90;;;;;;5095429;28;20047;-75
2021/12/17 03:00:28;;;;;;;35.88;10.85;;;9.70;99.90;;;;;;5096568;28;20455;-75
2021/12/17 03:02:56;;;;;;;37.17;11.95;;;9.70;99.90;;;;;;5075436;28;20032;-75
2021/12/17 03:05:24;;;;;;;46.40;12.68;;;9.70;99.90;;;;;;5093422;28;20054;-76
2021/12/17 03:07:50;;;;;;;40.83;11.25;;;9.70;99.90;;;;;;5074909;28;20440;-75
2021/12/17 03:10:16;;;;;;;40.70;12.38;;;9.70;99.90;;;;;;5107443;28;20372;-77
2021/12/17 03:12:50;;;;;;;40.20;12.13;;;9.70;99.90;;;;;;5100796;28;20034;-76
2021/12/17 03:18:32;;;;;;;43.95;11.90;;;9.70;99.90;;;;;;5093025;28;20067;-75
2021/12/17 03:23:42;;;;;;;45.03;12.88;;;9.70;99.90;;;;;;5111803;28;20089;-76
2021/12/17 03:26:20;;;;;;;40.20;12.25;;;9.70;99.90;;;;;;5103399;28;20024;-75
2021/12/17 03:28:48;;;;;;;49.95;11.70;;;9.70;99.90;;;;;;5092752;28;20490;-76
2021/12/17 03:31:14;;;;;;;43.65;12.18;;;9.70;99.90;;;;;;5107041;28;20028;-75
2021/12/17 03:33:43;;;;;;;44.17;12.20;;;9.70;99.90;;;;;;5092005;28;20040;-76
2021/12/17 03:36:11;;;;;;;43.47;12.30;;;9.70;99.90;;;;;;5102037;28;20027;-75
2021/12/17 03:38:38;;;;;;;45.58;12.02;;;9.80;99.90;;;;;;5096884;28;20082;-76
2021/12/17 03:41:33;;;;;;;41.50;12.85;;;9.80;99.90;;;;;;5103980;28;20028;-77
2021/12/17 03:43:52;;;;;;;44.83;13.50;;;9.80;99.90;;;;;;5072032;28;20037;-75
2021/12/17 03:46:19;;;;;;;47.20;12.10;;;9.80;99.90;;;;;;5109828;28;20016;-76
2021/12/17 03:48:46;;;;;;;46.50;12.20;;;9.80;99.90;;;;;;5113201;28;20038;-76
2021/12/17 03:51:17;;;;;;;38.65;12.27;;;9.90;99.90;;;;;;5113169;28;20112;-76
2021/12/17 03:53:52;;;;;;;39.95;11.13;;;9.90;99.90;;;;;;5113438;28;20102;-76
2021/12/17 03:56:19;;;;;;;44.58;12.20;;;9.90;99.90;;;;;;5110916;28;20024;-75
2021/12/17 03:58:45;;;;;;;38.50;10.95;;;9.80;99.90;;;;;;5113006;28;20038;-75
2021/12/17 04:01:10;;;;;;;38.78;11.60;;;9.90;99.90;;;;;;5103361;28;20032;-75
2021/12/17 04:03:37;;;;;;;41.03;13.30;;;9.80;99.90;;;;;;5092795;28;20024;-75
2021/12/17 04:06:03;;;;;;;44.10;11.30;;;9.90;99.90;;;;;;5105142;28;20095;-75
2021/12/17 04:08:29;;;;;;;42.72;11.35;;;9.80;99.90;;;;;;5092706;28;20483;-76
2021/12/17 04:11:02;;;;;;;58.03;12.90;;;9.90;99.90;;;;;;5103352;28;20027;-73
2021/12/17 04:13:33;;;;;;;48.60;11.95;;;9.90;99.90;;;;;;5112856;28;20027;-75
2021/12/17 04:16:04;;;;;;;227.45;27.15;;;9.90;99.90;;;;;;5109588;28;20027;-75
2021/12/17 04:18:31;;;;;;;48.75;12.55;;;9.90;99.90;;;;;;5078357;28;20024;-74
2021/12/17 04:20:59;;;;;;;44.30;12.02;;;9.90;99.90;;;;;;5095481;28;20095;-75
2021/12/17 04:23:25;;;;;;;41.90;11.43;;;9.90;99.90;;;;;;5099954;28;20024;-75
2021/12/17 04:25:51;;;;;;;34.35;9.38;;;9.90;99.90;;;;;;5096157;28;20032;-76
2021/12/17 04:28:19;;;;;;;32.92;9.43;;;9.90;99.90;;;;;;5099756;28;20467;-75
2021/12/17 04:30:45;;;;;;;150.35;17.52;;;10.00;99.90;;;;;;5116021;28;20040;-74
2021/12/17 04:33:12;;;;;;;42.63;10.65;;;10.00;99.90;;;;;;5111735;28;20020;-75
2021/12/17 04:35:39;;;;;;;38.88;10.20;;;10.00;99.90;;;;;;5095209;28;20073;-75
2021/12/17 04:38:06;;;;;;;35.85;10.73;;;10.00;99.90;;;;;;5106427;28;20024;-75
2021/12/17 04:40:33;;;;;;;35.40;9.75;;;10.00;99.90;;;;;;5108980;28;20047;-75
2021/12/17 04:43:14;;;;;;;38.55;9.43;;;10.00;99.90;;;;;;5114045;28;20179;-73
2021/12/17 04:45:48;;;;;;;367.05;37.15;;;10.00;99.90;;;;;;5099049;28;20115;-74
2021/12/17 04:59:12;;;;;;;33.97;9.65;;;10.00;99.90;;;;;;5096391;28;20036;-74
2021/12/17 05:01:38;;;;;;;34.38;9.70;;;10.00;99.90;;;;;;5104175;28;20100;-76
2021/12/17 05:04:05;;;;;;;24.40;7.28;;;10.00;99.90;;;;;;5115808;28;20026;-76
2021/12/17 05:06:32;;;;;;;28.40;9.15;;;10.00;99.90;;;;;;5110648;28;20043;-74
2021/12/17 05:09:06;;;;;;;29.58;9.63;;;10.00;99.90;;;;;;5095375;28;20036;-74
2021/12/17 05:19:50;;;;;;;27.13;8.48;;;10.10;99.90;;;;;;5095403;28;20039;-76
2021/12/17 05:22:17;;;;;;;26.67;8.50;;;10.10;99.90;;;;;;5096126;28;20066;-74
2021/12/17 05:24:43;;;;;;;30.13;9.60;;;10.00;99.90;;;;;;5112141;28;20028;-76
2021/12/17 05:27:09;;;;;;;31.67;8.60;;;10.10;99.90;;;;;;5103760;28;20028;-77
2021/12/17 05:29:35;;;;;;;32.92;9.40;;;10.10;99.90;;;;;;5106336;28;20043;-75
2021/12/17 05:32:00;;;;;;;33.78;10.45;;;10.10;99.90;;;;;;5104168;28;20026;-75
2021/12/17 05:34:26;;;;;;;34.78;9.32;;;10.10;99.90;;;;;;5095546;28;20040;-74
2021/12/17 05:36:52;;;;;;;32.08;8.57;;;10.10;99.90;;;;;;5100704;28;20031;-74
2021/12/17 05:39:17;;;;;;;32.13;9.18;;;10.10;99.90;;;;;;5101427;28;20031;-75
2021/12/17 05:41:45;;;;;;;238.30;25.88;;;10.10;99.90;;;;;;5094725;28;20024;-76
2021/12/17 05:44:14;;;;;;;32.28;9.50;;;10.10;99.90;;;;;;5095705;28;20024;-75
2021/12/17 05:46:49;;;;;;;34.92;9.50;;;10.10;99.90;;;;;;5101178;28;20024;-74
2021/12/17 05:49:23;;;;;;;31.63;9.25;;;10.10;99.90;;;;;;5105392;28;20110;-75
2021/12/17 05:51:50;;;;;;;34.28;10.50;;;10.10;99.90;;;;;;5094763;28;20035;-76
2021/12/17 05:54:16;;;;;;;28.13;9.25;;;10.20;99.90;;;;;;5094467;28;20024;-75
2021/12/17 05:56:42;;;;;;;26.38;8.85;;;10.20;99.90;;;;;;5096414;28;20039;-77
2021/12/17 05:59:08;;;;;;;30.75;10.18;;;10.20;99.90;;;;;;5103493;28;20090;-74
2021/12/17 06:01:34;;;;;;;74.78;13.20;;;10.20;99.90;;;;;;5100620;28;20020;-76
2021/12/17 06:04:00;;;;;;;30.63;10.10;;;10.20;99.90;;;;;;5100303;28;20028;-76
2021/12/17 06:06:26;;;;;;;26.17;9.35;;;10.20;99.90;;;;;;5094404;28;20488;-76
2021/12/17 06:08:52;;;;;;;29.88;9.05;;;10.20;99.90;;;;;;5094408;28;20039;-74
2021/12/17 06:11:18;;;;;;;90.78;14.88;;;10.20;99.90;;;;;;5095408;28;20020;-75
2021/12/17 06:13:43;;;;;;;26.52;9.80;;;10.20;99.90;;;;;;5076148;28;20028;-76
2021/12/17 06:16:09;;;;;;;24.60;8.32;;;10.20;99.90;;;;;;5095935;28;20020;-75
2021/12/17 06:18:35;;;;;;;25.70;8.38;;;10.20;99.90;;;;;;5107794;28;20032;-74
2021/12/17 06:21:00;;;;;;;22.88;8.93;;;10.20;99.90;;;;;;5099660;28;20392;-74
2021/12/17 06:23:26;;;;;;;23.90;9.30;;;10.20;99.90;;;;;;5098986;28;20189;-76
2021/12/17 06:25:52;;;;;;;25.77;9.38;;;10.20;99.90;;;;;;5094272;28;20016;-76
2021/12/17 06:28:17;;;;;;;27.50;9.98;;;10.20;99.90;;;;;;5113932;28;20036;-76
2021/12/17 06:30:44;;;;;;;40.75;10.45;;;10.30;99.90;;;;;;5105638;28;20060;-74
2021/12/17 06:33:10;;;;;;;27.33;9.32;;;10.20;99.90;;;;;;5092186;28;20030;-77
2021/12/17 06:35:35;;;;;;;26.85;10.20;;;10.20;99.90;;;;;;5090566;28;20089;-76
2021/12/17 06:38:04;;;;;;;25.98;9.75;;;10.20;99.90;;;;;;5074316;28;20024;-74
2021/12/17 06:40:30;;;;;;;28.40;11.57;;;10.20;99.90;;;;;;5091627;28;20064;-76
2021/12/17 06:42:56;;;;;;;25.58;10.02;;;10.20;99.90;;;;;;5092747;28;20134;-76
2021/12/17 06:45:37;;;;;;;30.58;11.23;;;10.20;99.90;;;;;;5093151;28;20032;-76
2021/12/17 06:48:03;;;;;;;30.07;9.93;;;10.20;99.90;;;;;;5093115;28;20486;-74
2021/12/17 07:06:25;;;;;;;26.02;9.10;;;10.20;99.90;;;;;;5093476;28;20437;-73
2021/12/17 07:11:55;;;;;;;30.33;10.25;;;10.30;99.90;;;;;;5091715;28;20035;-74
2021/12/17 07:35:40;;;;;;;30.55;10.88;;;10.10;99.90;;;;;;5091981;28;20020;-73
2021/12/17 07:40:51;;;;;;;77.05;14.35;;;10.10;99.90;;;;;;5093308;28;20039;-73
2021/12/17 07:43:25;;;;;;;28.23;9.55;;;10.10;99.90;;;;;;5092980;28;20487;-74
2021/12/17 07:45:52;;;;;;;30.52;11.00;;;10.10;99.90;;;;;;5091776;28;20443;-73
2021/12/17 07:48:18;;;;;;;29.25;10.18;;;10.10;99.90;;;;;;5072758;28;20036;-74
2021/12/17 07:50:44;;;;;;;27.90;10.38;;;10.10;99.90;;;;;;5095405;28;20027;-75
2021/12/17 07:53:10;;;;;;;28.80;10.63;;;10.00;99.90;;;;;;5096463;28;20047;-74
2021/12/17 07:55:35;;;;;;;29.02;10.77;;;10.00;99.90;;;;;;5095515;28;20028;-72
2021/12/17 07:58:01;;;;;;;29.20;10.10;;;10.00;99.90;;;;;;5094898;28;20020;-75
2021/12/17 08:00:27;;;;;;;32.33;11.23;;;10.00;99.90;;;;;;5096118;28;20028;-74
2021/12/17 08:02:52;;;;;;;37.33;12.88;;;10.00;99.90;;;;;;5094460;28;20035;-74
2021/12/17 08:05:18;;;;;;;38.40;11.45;;;10.00;99.90;;;;;;5093902;28;20436;-73
2021/12/17 08:07:45;;;;;;;30.55;10.23;;;10.10;99.90;;;;;;5094500;28;20024;-74
2021/12/17 08:10:11;;;;;;;30.55;10.57;;;10.10;99.90;;;;;;5095293;28;20032;-73
2021/12/17 08:12:37;;;;;;;26.73;9.73;;;10.10;99.90;;;;;;5095659;28;20472;-74
2021/12/17 08:15:05;;;;;;;31.80;10.00;;;10.10;99.90;;;;;;5094010;28;20025;-74
2021/12/17 08:28:25;;;;;;;29.30;9.60;;;10.10;99.90;;;;;;5092905;28;20028;-73
2021/12/17 08:30:51;;;;;;;29.88;9.70;;;10.00;99.90;;;;;;5094953;28;20369;-74
2021/12/17 08:33:20;;;;;;;25.33;9.55;;;10.10;99.90;;;;;;5077474;28;20090;-75
2021/12/17 08:35:46;;;;;;;23.70;8.75;;;10.10;99.90;;;;;;5094904;28;20035;-72
2021/12/17 08:38:12;;;;;;;27.20;8.82;;;10.10;99.90;;;;;;5103962;28;20016;-75
2021/12/17 08:40:38;;;;;;;27.95;9.73;;;10.20;99.90;;;;;;5098940;28;20082;-77
2021/12/17 08:43:04;;;;;;;27.85;9.30;;;10.20;99.90;;;;;;5095486;28;20034;-73
2021/12/17 08:45:30;;;;;;;28.17;9.20;;;10.20;99.90;;;;;;5095853;28;20027;-74
2021/12/17 08:47:56;;;;;;;26.60;8.70;;;10.30;99.90;;;;;;5094138;28;20392;-73
2021/12/17 08:50:22;;;;;;;26.40;9.02;;;10.30;99.90;;;;;;5095687;28;20442;-73
2021/12/17 08:52:48;;;;;;;25.77;8.68;;;10.40;99.90;;;;;;5099837;28;20027;-73
2021/12/17 08:55:14;;;;;;;23.35;8.10;;;10.40;99.90;;;;;;5099469;28;20468;-73
2021/12/17 08:57:47;;;;;;;25.50;7.88;;;10.40;99.90;;;;;;5094452;28;20027;-73
2021/12/17 09:00:13;;;;;;;22.05;7.35;;;10.50;99.90;;;;;;5093956;28;20106;-75
2021/12/17 09:02:41;;;;;;;20.23;6.90;;;10.50;99.90;;;;;;5100990;28;20466;-73
2021/12/17 09:05:08;;;;;;;20.35;6.78;;;10.50;99.90;;;;;;5108244;28;20016;-75
2021/12/17 09:07:34;;;;;;;17.80;6.00;;;10.50;99.90;;;;;;5076384;28;20090;-75
2021/12/17 09:10:03;;;;;;;22.63;7.18;;;10.40;99.90;;;;;;5094567;28;20035;-75
2021/12/17 09:12:29;;;;;;;21.92;6.90;;;10.40;99.90;;;;;;5094577;28;20135;-74
2021/12/17 09:14:54;;;;;;;18.52;6.10;;;10.40;99.90;;;;;;5094613;28;20544;-72
2021/12/17 09:17:24;;;;;;;19.88;6.72;;;10.40;99.90;;;;;;5095240;28;20107;-72
2021/12/17 09:19:50;;;;;;;19.33;6.60;;;10.30;99.90;;;;;;5094645;28;20035;-73
2021/12/17 09:22:16;;;;;;;19.40;6.20;;;10.30;99.90;;;;;;5075611;28;20032;-73
2021/12/17 09:24:41;;;;;;;20.30;7.50;;;10.30;99.90;;;;;;5094632;28;20111;-72
2021/12/17 09:27:07;;;;;;;20.17;6.65;;;10.30;99.90;;;;;;5094180;28;20040;-72
2021/12/17 09:29:32;;;;;;;32.53;8.48;;;10.30;99.90;;;;;;5092221;28;20444;-73
2021/12/17 09:31:58;;;;;;;25.08;7.85;;;10.30;99.90;;;;;;5075418;28;20433;-73
2021/12/17 09:34:24;;;;;;;25.08;7.82;;;10.30;99.90;;;;;;5092422;28;20028;-74
2021/12/17 09:36:50;;;;;;;20.38;7.05;;;10.30;99.90;;;;;;5094352;28;20092;-74
2021/12/17 09:39:17;;;;;;;22.40;7.07;;;10.30;99.90;;;;;;5094289;28;20032;-74
2021/12/17 09:41:46;;;;;;;22.25;7.20;;;10.40;99.90;;;;;;5075978;28;20032;-72
2021/12/17 09:44:15;;;;;;;19.42;6.85;;;10.40;99.90;;;;;;5094015;28;20024;-74
2021/12/17 09:46:45;;;;;;;22.02;7.03;;;10.40;99.90;;;;;;5093608;28;20165;-74
2021/12/17 09:49:11;;;;;;;25.08;7.78;;;10.40;99.90;;;;;;5094246;28;20044;-74
2021/12/17 09:51:37;;;;;;;22.00;6.93;;;10.40;99.90;;;;;;5094455;28;20020;-74
2021/12/17 09:54:02;;;;;;;21.80;7.97;;;10.40;99.90;;;;;;5074730;28;20163;-74
2021/12/17 09:56:28;;;;;;;22.58;6.60;;;10.40;99.90;;;;;;5093293;28;20107;-74
2021/12/17 09:58:54;;;;;;;26.85;8.73;;;10.40;99.90;;;;;;5093456;28;20471;-74
2021/12/17 10:01:20;;;;;;;26.42;9.60;;;10.40;99.90;;;;;;5093126;28;20418;-72
2021/12/17 10:03:46;;;;;;;20.75;7.00;;;10.40;99.90;;;;;;5093787;28;20024;-75
2021/12/17 10:06:22;;;;;;;20.52;6.93;;;10.50;99.90;;;;;;5093437;28;20020;-75
2021/12/17 10:08:49;;;;;;;20.83;6.53;;;10.50;99.90;;;;;;5093420;28;20040;-73
2021/12/17 10:11:15;;;;;;;20.08;6.38;;;10.60;99.90;;;;;;5093374;28;20028;-73
2021/12/17 10:13:41;;;;;;;21.63;7.15;;;10.60;99.90;;;;;;5092525;28;20456;-75
2021/12/17 10:16:10;;;;;;;20.42;6.35;;;10.60;99.90;;;;;;5093602;28;20028;-72
2021/12/17 10:18:50;;;;;;;21.52;6.68;;;10.60;99.90;;;;;;5093480;28;20032;-72
2021/12/17 10:21:24;;;;;;;18.27;6.60;;;10.70;99.90;;;;;;5092470;28;20050;-73
2021/12/17 10:23:55;;;;;;;16.40;5.68;;;10.70;99.90;;;;;;5093389;28;20032;-76
2021/12/17 10:26:22;;;;;;;14.85;5.28;;;10.70;99.90;;;;;;5092842;28;20020;-75
2021/12/17 10:29:04;;;;;;;14.48;4.30;;;10.70;99.90;;;;;;5093120;28;20063;-74
2021/12/17 10:31:30;;;;;;;;;;;10.70;99.90;;;;;;5093878;28;20032;-74
2021/12/17 10:34:01;;;;;;;10.65;3.78;;;10.70;99.90;;;;;;5093486;28;19908;-75
2021/12/17 10:36:43;;;;;;;14.05;4.93;;;10.70;99.90;;;;;;5092743;28;20024;-75
2021/12/17 10:39:25;;;;;;;14.23;4.90;;;10.70;99.90;;;;;;5092993;28;20178;-75
2021/12/17 10:41:51;;;;;;;13.68;4.57;;;10.70;99.90;;;;;;5093071;28;20024;-75
2021/12/17 10:44:20;;;;;;;12.77;4.25;;;10.70;99.90;;;;;;5092281;28;20434;-75
2021/12/17 10:47:06;;;;;;;10.27;3.10;;;10.70;99.90;;;;;;5093210;28;20024;-76
2021/12/17 10:49:31;;;;;;;8.35;2.63;;;10.70;99.90;;;;;;5074548;28;20087;-74
2021/12/17 10:52:15;;;;;;;7.93;2.53;;;10.70;99.90;;;;;;5093106;28;20353;-76
2021/12/17 10:54:41;;;;;;;4.40;2.10;;;10.60;99.90;;;;;;5092540;28;20440;-74
2021/12/17 10:57:07;;;;;;;6.57;2.92;;;10.70;99.90;;;;;;5092977;28;20039;-76
2021/12/17 10:59:35;;;;;;;5.97;2.53;;;10.70;99.90;;;;;;5092592;28;20490;-76
2021/12/17 11:02:10;;;;;;;5.45;2.55;;;10.80;99.90;;;;;;5092758;28;20027;-75
2021/12/17 11:04:40;;;;;;;6.07;3.00;;;10.80;99.90;;;;;;5074559;28;20372;-74
2021/12/17 11:07:09;;;;;;;7.55;3.10;;;10.90;99.90;;;;;;5092539;28;20383;-75
2021/12/17 11:09:39;;;;;;;7.07;2.67;;;10.90;99.90;;;;;;5092689;28;20440;-75
2021/12/17 11:12:14;;;;;;;6.18;2.65;;;11.00;99.90;;;;;;5074592;28;20172;-76
2021/12/17 11:14:44;;;;;;;5.38;2.70;;;11.00;99.90;;;;;;5092499;28;20042;-76
2021/12/17 11:17:16;;;;;;;6.13;3.13;;;11.00;99.90;;;;;;5093090;28;20047;-75
2021/12/17 11:19:42;;;;;;;8.73;3.35;;;11.10;99.90;;;;;;5092380;28;20392;-74
2021/12/17 11:22:09;;;;;;;6.80;2.90;;;11.10;99.90;;;;;;5092328;28;20421;-74
2021/12/17 11:24:36;;;;;;;5.47;2.75;;;11.10;99.90;;;;;;5097596;28;20412;-74
2021/12/17 11:27:05;;;;;;;7.47;3.25;;;11.10;99.90;;;;;;5099338;28;20083;-74
2021/12/17 11:29:31;;;;;;;8.20;3.20;;;11.10;99.90;;;;;;5099758;28;20043;-75
2021/12/17 11:31:59;;;;;;;6.47;3.35;;;11.20;99.90;;;;;;5098532;28;20023;-75
2021/12/17 11:34:25;;;;;;;124.72;12.60;;;11.20;99.90;;;;;;5098704;28;20072;-74
2021/12/17 11:36:51;;;;;;;10.82;3.47;;;11.20;99.90;;;;;;5099138;28;20421;-75
2021/12/17 11:39:24;;;;;;;6.43;3.15;;;11.20;99.90;;;;;;5099272;28;20032;-75
2021/12/17 11:42:18;;;;;;;7.43;3.33;;;11.10;99.90;;;;;;5099776;28;20031;-75
2021/12/17 11:44:53;;;;;;;9.60;3.92;;;11.10;99.90;;;;;;5099013;28;20032;-76
2021/12/17 11:47:19;;;;;;;8.82;3.38;;;11.10;99.90;;;;;;5097141;28;20486;-75
2021/12/17 11:49:49;;;;;;;6.03;3.25;;;11.10;99.90;;;;;;5098696;28;20111;-75
2021/12/17 11:52:44;;;;;;;9.40;3.35;;;11.10;99.90;;;;;;5098727;28;20468;-75
2021/12/17 11:55:27;;;;;;;6.82;3.65;;;11.10;99.90;;;;;;5088414;28;20043;-73
2021/12/17 11:57:59;;;;;;;10.52;4.25;;;11.20;99.90;;;;;;5094703;28;20036;-73
2021/12/17 12:00:30;;;;;;;6.45;3.40;;;11.20;99.90;;;;;;5097297;28;20032;-75
2021/12/17 12:03:11;;;;;;;10.73;4.18;;;11.10;99.90;;;;;;5101241;28;20028;-73
2021/12/17 12:05:40;;;;;;;10.23;3.73;;;11.20;99.90;;;;;;5096655;28;20032;-75
2021/12/17 12:08:25;;;;;;;11.02;4.30;;;11.20;99.90;;;;;;5084917;28;20648;-75
2021/12/17 12:11:11;;;;;;;9.98;4.60;;;11.10;99.90;;;;;;5089766;28;20058;-75
2021/12/17 12:13:39;;;;;;;14.38;4.35;;;11.20;99.90;;;;;;5090213;28;20361;-74
2021/12/17 12:16:13;;;;;;;12.07;4.25;;;11.10;99.90;;;;;;5105631;28;20107;-73
2021/12/17 12:18:51;;;;;;;10.73;4.72;;;11.20;99.90;;;;;;5088280;28;20051;-72
2021/12/17 12:21:19;;;;;;;11.93;4.70;;;11.20;99.90;;;;;;5098140;28;20020;-74
2021/12/17 12:24:05;;;;;;;10.60;4.50;;;11.10;99.90;;;;;;5098866;28;20475;-74
2021/12/17 12:26:45;;;;;;;9.00;4.57;;;11.10;99.90;;;;;;5087410;28;20040;-74
2021/12/17 12:29:14;;;;;;;15.55;4.90;;;11.10;99.90;;;;;;5098269;28;20093;-72
2021/12/17 12:31:43;;;;;;;10.13;4.75;;;11.00;99.90;;;;;;5097880;28;20028;-73
2021/12/17 12:34:33;;;;;;;11.95;5.20;;;11.10;99.90;;;;;;5094182;28;20062;-72
2021/12/17 12:37:07;;;;;;;11.07;5.07;;;11.10;99.90;;;;;;5091398;28;20104;-74
2021/12/17 12:40:06;;;;;;;13.38;6.00;;;11.00;99.90;;;;;;5092767;28;20035;-73
2021/12/17 12:42:36;;;;;;;10.90;5.47;;;11.00;99.90;;;;;;5081549;28;20483;-76
2021/12/17 12:45:17;;;;;;;13.75;6.25;;;11.00;99.90;;;;;;5092875;28;20508;-76
2021/12/17 12:47:54;;;;;;;16.80;6.63;;;11.00;99.90;;;;;;5081558;28;20040;-75
2021/12/17 12:50:25;;;;;;;16.58;6.93;;;11.00;99.90;;;;;;5092912;28;20042;-74
2021/12/17 12:53:19;;;;;;;12.52;6.43;;;11.00;99.90;;;;;;5092002;28;20426;-74
2021/12/17 12:55:52;;;;;;;14.00;6.70;;;11.00;99.90;;;;;;5093507;28;20344;-74
2021/12/17 12:58:28;;;;;;;14.05;7.07;;;11.00;99.90;;;;;;5092484;28;20040;-74
2021/12/17 13:01:02;;;;;;;13.43;6.93;;;11.00;99.90;;;;;;5094187;28;20078;-74
2021/12/17 13:03:31;;;;;;;15.68;7.32;;;11.00;99.90;;;;;;5093425;28;20059;-74
2021/12/17 13:05:59;;;;;;;15.60;7.75;;;11.00;99.90;;;;;;5094048;28;20028;-74
2021/12/17 13:08:26;;;;;;;16.42;8.30;;;11.00;99.90;;;;;;5094821;28;20031;-73
2021/12/17 13:10:54;;;;;;;16.02;8.57;;;10.90;99.90;;;;;;5085557;28;20413;-74
2021/12/17 13:13:36;;;;;;;16.02;7.28;;;10.90;99.90;;;;;;5095927;28;20491;-73
2021/12/17 13:16:15;;;;;;;16.08;7.50;;;10.90;99.90;;;;;;5091707;28;20093;-73
2021/12/17 13:24:19;;;;;;;14.13;6.93;;;10.80;99.90;;;;;;5095029;28;20020;-73
2021/12/17 13:27:05;;;;;;;12.38;6.25;;;10.80;99.90;;;;;;5093320;28;20037;-73
2021/12/17 13:29:37;;;;;;;10.65;5.90;;;10.80;99.90;;;;;;5094696;28;20070;-73
2021/12/17 13:32:11;;;;;;;13.00;6.63;;;10.70;99.90;;;;;;5094837;28;20024;-74
2021/12/17 13:34:38;;;;;;;15.00;6.78;;;10.70;99.90;;;;;;5093043;28;20067;-74
2021/12/17 13:37:08;;;;;;;15.77;7.28;;;10.70;99.90;;;;;;5093490;28;20231;-74
2021/12/17 13:39:54;;;;;;;14.02;6.82;;;10.70;99.90;;;;;;5093387;28;20023;-75
2021/12/17 13:42:26;;;;;;;13.30;6.75;;;10.70;99.90;;;;;;5093964;28;20051;-75
2021/12/17 13:44:58;;;;;;;14.50;6.90;;;10.70;99.90;;;;;;5092782;28;20376;-74
2021/12/17 13:47:38;;;;;;;12.95;5.72;;;10.70;99.90;;;;;;5093904;28;20378;-73
2021/12/17 13:50:20;;;;;;;18.88;7.07;;;10.80;99.90;;;;;;5094162;28;20029;-74
2021/12/17 13:52:50;;;;;;;16.83;7.72;;;10.70;99.90;;;;;;5094525;28;20467;-74
2021/12/17 13:55:27;;;;;;;15.75;7.43;;;10.70;99.90;;;;;;5094429;28;20031;-75
2021/12/17 13:57:53;;;;;;;16.45;7.75;;;10.70;99.90;;;;;;5093264;28;20035;-74
2021/12/17 14:00:25;;;;;;;15.30;7.72;;;10.70;99.90;;;;;;5094622;28;20063;-75
2021/12/17 14:02:53;;;;;;;;;;;10.70;99.90;;;;;;5091318;28;20376;-74
2021/12/17 14:05:25;;;;;;;17.50;8.05;;;10.60;99.90;;;;;;5090845;28;19951;-75
2021/12/17 14:07:52;;;;;;;21.63;8.68;;;10.60;99.90;;;;;;5092769;28;20044;-72
2021/12/17 14:10:20;;;;;;;16.17;7.05;;;10.60;99.90;;;;;;5094077;28;20116;-73
2021/12/17 14:12:47;;;;;;;16.33;8.02;;;10.50;99.90;;;;;;5093910;28;20030;-74
2021/12/17 14:15:16;;;;;;;17.58;7.90;;;10.50;99.90;;;;;;5093521;28;20024;-74
2021/12/17 14:17:44;;;;;;;19.15;8.55;;;10.50;99.90;;;;;;5093640;28;20028;-74
2021/12/17 14:20:22;;;;;;;18.40;8.07;;;10.50;99.90;;;;;;5094111;28;20028;-74
2021/12/17 14:22:50;;;;;;;18.00;8.48;;;10.50;99.90;;;;;;5094087;28;20024;-75
2021/12/17 14:25:35;;;;;;;21.10;9.70;;;10.50;99.90;;;;;;5092372;28;20523;-75
2021/12/17 14:28:09;;;;;;;18.83;8.85;;;10.50;99.90;;;;;;5086159;28;20043;-73
2021/12/17 14:30:35;;;;;;;16.45;7.40;;;10.50;99.90;;;;;;5098770;28;20043;-75
2021/12/17 14:33:08;;;;;;;19.80;8.65;;;10.50;99.90;;;;;;5093561;28;20535;-74
2021/12/17 14:35:55;;;;;;;19.02;7.93;;;10.50;99.90;;;;;;5094207;28;20067;-73
2021/12/17 14:38:38;;;;;;;18.67;8.05;;;10.50;99.90;;;;;;5086135;28;20020;-75
2021/12/17 14:41:06;;;;;;;18.48;8.52;;;10.50;99.90;;;;;;5092636;28;20110;-73
2021/12/17 14:43:42;;;;;;;17.55;8.02;;;10.50;99.90;;;;;;5092451;28;20032;-74
2021/12/17 14:46:18;;;;;;;20.58;8.90;;;10.50;99.90;;;;;;5092484;28;20107;-75
2021/12/17 14:49:03;;;;;;;20.77;8.43;;;10.40;99.90;;;;;;5091082;28;20039;-75
2021/12/17 14:57:23;;;;;;;19.90;8.60;;;10.40;99.90;;;;;;5093004;28;20077;-74
2021/12/17 14:58:46;;;;;;;17.90;8.10;;;10.40;99.90;;;;;;5092012;28;20031;-74
2021/12/17 15:02:50;;;;;;;26.50;10.25;;;10.40;99.90;;;;;;5092741;28;20482;-74
2021/12/17 15:05:19;;;;;;;20.63;8.77;;;10.40;99.90;;;;;;5092447;28;20028;-74
2021/12/17 15:07:45;;;;;;;20.27;9.57;;;10.40;99.90;;;;;;5106928;28;20035;-75
2021/12/17 15:10:12;;;;;;;22.75;9.40;;;10.40;99.90;;;;;;5091077;28;20035;-73
2021/12/17 15:12:39;;;;;;;22.60;8.77;;;10.50;99.90;;;;;;5092317;28;20507;-73
2021/12/17 15:15:07;;;;;;;21.38;10.10;;;10.50;99.90;;;;;;5092747;28;20020;-74
2021/12/17 15:17:37;;;;;;;20.20;9.25;;;10.50;99.90;;;;;;5092281;28;20032;-75
2021/12/17 15:20:08;;;;;;;22.50;10.00;;;10.50;99.90;;;;;;5092467;28;20096;-73
2021/12/17 15:22:34;;;;;;;21.67;9.82;;;10.60;99.90;;;;;;5100474;28;20036;-74
2021/12/17 15:24:59;;;;;;;22.58;10.82;;;10.60;99.90;;;;;;5092428;28;20233;-74
2021/12/17 15:27:27;;;;;;;19.00;8.95;;;10.60;99.90;;;;;;5091812;28;20067;-75
2021/12/17 15:29:53;;;;;;;20.83;9.52;;;10.60;99.90;;;;;;5085907;28;20448;-73
2021/12/17 15:32:18;;;;;;;20.05;9.35;;;10.60;99.90;;;;;;5092210;28;20115;-75
2021/12/17 15:34:44;;;;;;;21.45;9.43;;;10.60;99.90;;;;;;5093033;28;20040;-74
2021/12/17 15:37:10;;;;;;;22.35;10.60;;;10.60;99.90;;;;;;5077747;28;20068;-74
2021/12/17 15:39:35;;;;;;;22.15;10.15;;;10.50;99.90;;;;;;5092581;28;20024;-73
2021/12/17 15:42:01;;;;;;;22.23;9.57;;;10.50;99.90;;;;;;5096517;28;20459;-74
2021/12/17 15:44:27;;;;;;;22.30;10.10;;;10.50;99.90;;;;;;5098130;28;20039;-73
2021/12/17 15:46:53;;;;;;;21.83;10.90;;;10.50;99.90;;;;;;5090468;28;20113;-75
2021/12/17 15:49:18;;;;;;;23.38;9.90;;;10.50;99.90;;;;;;5092172;28;20035;-75
2021/12/17 15:51:44;;;;;;;22.88;11.73;;;10.40;99.90;;;;;;5076030;28;20027;-74
2021/12/17 15:54:10;;;;;;;21.92;10.48;;;10.50;99.90;;;;;;5092264;28;20020;-75
2021/12/17 15:56:35;;;;;;;22.73;11.23;;;10.50;99.90;;;;;;5092621;28;20099;-73